Weather at Wiley Post Will Rogers Memorial Airport

Public forecast

Using degrees Fahrenheit for public forecast. Weather courtesy of forecast.io.

Current aviation weather report (METAR) for Wiley Post Will Rogers Memorial Airport

Retrieved 2022/08/19 09:53 UTC (18 minutes ago):

PABR 190953Z AUTO 05010KT 10SM OVC004 A3001

Aviation forecast (TAF) for Wiley Post Will Rogers Memorial Airport

Retrieved 2022/08/19 06:30 UTC (4 hours ago):

TAF PABR 190529Z 1906/2006 05015KT 2SM BR OVC005 FM190900 06010KT 2SM BR OVC004 FM191700 06008KT P6SM OVC007